sensor_id;sensor_type;location;lat;lon;timestamp;pressure;altitude;pressure_sealevel;temperature;humidity
62833;BME280;48891;49.220;6.920;2024-01-15T00:01:55;98178.28;;;9.96;58.45
62833;BME280;48891;49.220;6.920;2024-01-15T00:04:20;98168.72;;;9.95;58.58
62833;BME280;48891;49.220;6.920;2024-01-15T00:06:45;98162.47;;;9.96;58.57
62833;BME280;48891;49.220;6.920;2024-01-15T00:09:11;98143.59;;;9.89;58.60
62833;BME280;48891;49.220;6.920;2024-01-15T00:11:36;98155.63;;;9.94;58.20
62833;BME280;48891;49.220;6.920;2024-01-15T00:14:01;98165.22;;;9.95;58.33
62833;BME280;48891;49.220;6.920;2024-01-15T00:16:26;98154.69;;;9.95;58.26
62833;BME280;48891;49.220;6.920;2024-01-15T00:18:51;98157.41;;;9.93;58.33
62833;BME280;48891;49.220;6.920;2024-01-15T00:21:17;98154.56;;;9.96;58.29
62833;BME280;48891;49.220;6.920;2024-01-15T00:23:42;98146.22;;;9.89;58.19
62833;BME280;48891;49.220;6.920;2024-01-15T00:26:08;98155.63;;;9.94;58.39
62833;BME280;48891;49.220;6.920;2024-01-15T00:28:33;98152.03;;;9.95;58.26
62833;BME280;48891;49.220;6.920;2024-01-15T00:30:58;98114.59;;;9.77;58.19
62833;BME280;48891;49.220;6.920;2024-01-15T00:33:23;98135.41;;;9.94;58.62
62833;BME280;48891;49.220;6.920;2024-01-15T00:35:49;98135.41;;;9.94;58.23
62833;BME280;48891;49.220;6.920;2024-01-15T00:38:14;98136.25;;;9.95;58.39
62833;BME280;48891;49.220;6.920;2024-01-15T00:40:39;98140.69;;;9.94;58.23
62833;BME280;48891;49.220;6.920;2024-01-15T00:43:04;98133.72;;;9.93;58.19
62833;BME280;48891;49.220;6.920;2024-01-15T00:45:30;98140.69;;;9.94;58.06
62833;BME280;48891;49.220;6.920;2024-01-15T00:47:55;98128.44;;;9.93;57.89
62833;BME280;48891;49.220;6.920;2024-01-15T00:50:20;98124.88;;;9.94;58.12
62833;BME280;48891;49.220;6.920;2024-01-15T00:52:45;98124.97;;;9.93;58.28
62833;BME280;48891;49.220;6.920;2024-01-15T00:55:11;98123.94;;;9.95;58.55
62833;BME280;48891;49.220;6.920;2024-01-15T00:57:36;98107.78;;;9.87;58.04
62833;BME280;48891;49.220;6.920;2024-01-15T01:00:01;98124.88;;;9.94;58.22
62833;BME280;48891;49.220;6.920;2024-01-15T01:02:27;98124.03;;;9.94;58.07
62833;BME280;48891;49.220;6.920;2024-01-15T01:04:52;98120.53;;;9.93;58.03
62833;BME280;48891;49.220;6.920;2024-01-15T01:07:17;98125.81;;;9.93;57.81
62833;BME280;48891;49.220;6.920;2024-01-15T01:09:42;98115.28;;;9.93;58.13
62833;BME280;48891;49.220;6.920;2024-01-15T01:12:07;98113.69;;;9.91;58.12
62833;BME280;48891;49.220;6.920;2024-01-15T01:14:33;98119.72;;;9.93;58.09
62833;BME280;48891;49.220;6.920;2024-01-15T01:16:58;98113.59;;;9.92;58.02
62833;BME280;48891;49.220;6.920;2024-01-15T01:19:23;98109.28;;;9.91;58.24
62833;BME280;48891;49.220;6.920;2024-01-15T01:21:48;98094.63;;;9.87;58.03
62833;BME280;48891;49.220;6.920;2024-01-15T01:24:14;98109.19;;;9.93;57.85
62833;BME280;48891;49.220;6.920;2024-01-15T01:26:39;98109.19;;;9.93;57.97
62833;BME280;48891;49.220;6.920;2024-01-15T01:29:04;98111.81;;;9.93;58.05
62833;BME280;48891;49.220;6.920;2024-01-15T01:31:29;98107.59;;;9.90;57.92
62833;BME280;48891;49.220;6.920;2024-01-15T01:33:55;98104.75;;;9.93;57.97
62833;BME280;48891;49.220;6.920;2024-01-15T01:36:20;98103.91;;;9.93;57.90
62833;BME280;48891;49.220;6.920;2024-01-15T01:38:45;98105.72;;;9.92;57.98
62833;BME280;48891;49.220;6.920;2024-01-15T01:41:10;98100.44;;;9.92;57.96
62833;BME280;48891;49.220;6.920;2024-01-15T01:43:36;98107.50;;;9.92;58.08
62833;BME280;48891;49.220;6.920;2024-01-15T01:46:01;98102.25;;;9.92;57.77
62833;BME280;48891;49.220;6.920;2024-01-15T01:48:27;98096.84;;;9.93;57.86
62833;BME280;48891;49.220;6.920;2024-01-15T01:50:54;98097.81;;;9.92;57.86
62833;BME280;48891;49.220;6.920;2024-01-15T01:53:20;98106.53;;;9.93;57.83
62833;BME280;48891;49.220;6.920;2024-01-15T01:55:46;98101.28;;;9.93;57.67
62833;BME280;48891;49.220;6.920;2024-01-15T01:58:12;98094.34;;;9.92;57.82
62833;BME280;48891;49.220;6.920;2024-01-15T02:00:38;98087.28;;;9.92;57.83
62833;BME280;48891;49.220;6.920;2024-01-15T02:03:03;98095.19;;;9.92;57.89
62833;BME280;48891;49.220;6.920;2024-01-15T02:05:29;98094.22;;;9.93;57.90
62833;BME280;48891;49.220;6.920;2024-01-15T02:07:56;98085.69;;;9.89;57.83
62833;BME280;48891;49.220;6.920;2024-01-15T02:10:21;98079.91;;;9.84;57.85
62833;BME280;48891;49.220;6.920;2024-01-15T02:12:46;98091.72;;;9.92;58.00
62833;BME280;48891;49.220;6.920;2024-01-15T02:15:11;98083.03;;;9.89;57.82
62833;BME280;48891;49.220;6.920;2024-01-15T02:18:00;98088.13;;;9.93;57.85
62833;BME280;48891;49.220;6.920;2024-01-15T02:20:25;98093.56;;;9.89;57.70
62833;BME280;48891;49.220;6.920;2024-01-15T02:22:50;98101.38;;;9.91;57.86
62833;BME280;48891;49.220;6.920;2024-01-15T02:25:16;98084.75;;;9.91;57.74
62833;BME280;48891;49.220;6.920;2024-01-15T02:27:42;98082.09;;;9.91;57.83
62833;BME280;48891;49.220;6.920;2024-01-15T02:30:08;98080.31;;;9.91;57.81
62833;BME280;48891;49.220;6.920;2024-01-15T02:32:34;98073.28;;;9.92;57.74
62833;BME280;48891;49.220;6.920;2024-01-15T02:35:00;98085.56;;;9.91;57.80
62833;BME280;48891;49.220;6.920;2024-01-15T02:37:25;98083.81;;;9.92;57.83
62833;BME280;48891;49.220;6.920;2024-01-15T02:39:50;98077.69;;;9.91;57.72
62833;BME280;48891;49.220;6.920;2024-01-15T02:42:15;98069.03;;;9.89;57.88
62833;BME280;48891;49.220;6.920;2024-01-15T02:44:41;98071.59;;;9.91;57.88
62833;BME280;48891;49.220;6.920;2024-01-15T02:47:06;98064.50;;;9.91;57.49
62833;BME280;48891;49.220;6.920;2024-01-15T02:49:31;98059.34;;;9.89;57.76
62833;BME280;48891;49.220;6.920;2024-01-15T02:51:56;98056.63;;;9.91;57.80
62833;BME280;48891;49.220;6.920;2024-01-15T02:54:21;98020.56;;;9.79;57.85
62833;BME280;48891;49.220;6.920;2024-01-15T02:56:47;98054.09;;;9.89;57.80
62833;BME280;48891;49.220;6.920;2024-01-15T02:59:12;98041.78;;;9.90;57.86
62833;BME280;48891;49.220;6.920;2024-01-15T03:01:37;98059.66;;;9.85;57.67
62833;BME280;48891;49.220;6.920;2024-01-15T03:04:21;98074.22;;;9.91;57.73
62833;BME280;48891;49.220;6.920;2024-01-15T03:06:46;98079.47;;;9.91;57.76
62833;BME280;48891;49.220;6.920;2024-01-15T03:09:12;98076.84;;;9.91;57.91
62833;BME280;48891;49.220;6.920;2024-01-15T03:11:40;98070.00;;;9.88;57.81
62833;BME280;48891;49.220;6.920;2024-01-15T03:14:06;98054.78;;;9.79;57.70
62833;BME280;48891;49.220;6.920;2024-01-15T03:16:31;98075.16;;;9.89;57.71
62833;BME280;48891;49.220;6.920;2024-01-15T03:18:56;98061.97;;;9.89;57.76
62833;BME280;48891;49.220;6.920;2024-01-15T03:21:22;98054.94;;;9.90;57.72
62833;BME280;48891;49.220;6.920;2024-01-15T03:23:47;98056.72;;;9.89;57.58
62833;BME280;48891;49.220;6.920;2024-01-15T03:26:12;98044.41;;;9.90;57.79
62833;BME280;48891;49.220;6.920;2024-01-15T03:28:38;98039.25;;;9.88;58.01
62833;BME280;48891;49.220;6.920;2024-01-15T03:31:03;98037.44;;;9.89;57.77
62833;BME280;48891;49.220;6.920;2024-01-15T03:33:28;98029.56;;;9.89;57.77
62833;BME280;48891;49.220;6.920;2024-01-15T03:35:53;98030.38;;;9.89;57.70
62833;BME280;48891;49.220;6.920;2024-01-15T03:38:19;98042.72;;;9.89;57.69
62833;BME280;48891;49.220;6.920;2024-01-15T03:40:44;98026.81;;;9.78;57.67
62833;BME280;48891;49.220;6.920;2024-01-15T03:43:09;98039.25;;;9.88;57.58
62833;BME280;48891;49.220;6.920;2024-01-15T03:45:34;98048.81;;;9.89;57.73
62833;BME280;48891;49.220;6.920;2024-01-15T03:48:00;98032.28;;;9.87;57.73
62833;BME280;48891;49.220;6.920;2024-01-15T03:50:25;98031.34;;;9.88;57.75
62833;BME280;48891;49.220;6.920;2024-01-15T03:52:50;98034.00;;;9.88;57.74
62833;BME280;48891;49.220;6.920;2024-01-15T03:55:15;98035.78;;;9.88;57.68
62833;BME280;48891;49.220;6.920;2024-01-15T03:57:41;98026.94;;;9.89;57.57
62833;BME280;48891;49.220;6.920;2024-01-15T04:00:07;97992.69;;;9.76;57.72
62833;BME280;48891;49.220;6.920;2024-01-15T04:02:32;98004.06;;;9.89;57.70
62833;BME280;48891;49.220;6.920;2024-01-15T04:04:57;98005.75;;;9.91;57.75
62833;BME280;48891;49.220;6.920;2024-01-15T04:07:23;97998.06;;;9.87;57.75
62833;BME280;48891;49.220;6.920;2024-01-15T04:09:48;97998.81;;;9.89;57.56
62833;BME280;48891;49.220;6.920;2024-01-15T04:12:13;98003.22;;;9.89;57.73
62833;BME280;48891;49.220;6.920;2024-01-15T04:14:38;97996.28;;;9.88;57.84
62833;BME280;48891;49.220;6.920;2024-01-15T04:17:04;98004.19;;;9.88;57.69
62833;BME280;48891;49.220;6.920;2024-01-15T04:19:29;98003.22;;;9.89;57.81
62833;BME280;48891;49.220;6.920;2024-01-15T04:21:54;97996.41;;;9.86;57.77
62833;BME280;48891;49.220;6.920;2024-01-15T04:24:19;97992.69;;;9.89;57.66
62833;BME280;48891;49.220;6.920;2024-01-15T04:26:45;97987.53;;;9.87;57.79
62833;BME280;48891;49.220;6.920;2024-01-15T04:29:10;97975.25;;;9.88;57.67
62833;BME280;48891;49.220;6.920;2024-01-15T04:31:35;97969.34;;;9.84;57.73
62833;BME280;48891;49.220;6.920;2024-01-15T04:34:01;97978.69;;;9.88;57.64
62833;BME280;48891;49.220;6.920;2024-01-15T04:36:26;97980.50;;;9.88;57.72
62833;BME280;48891;49.220;6.920;2024-01-15T04:38:51;97974.38;;;9.87;57.71
62833;BME280;48891;49.220;6.920;2024-01-15T04:41:16;97970.81;;;9.88;57.67
62833;BME280;48891;49.220;6.920;2024-01-15T04:43:42;97963.00;;;9.87;57.61
62833;BME280;48891;49.220;6.920;2024-01-15T04:46:07;97971.63;;;9.89;57.75
62833;BME280;48891;49.220;6.920;2024-01-15T04:48:33;97968.19;;;9.88;57.67
62833;BME280;48891;49.220;6.920;2024-01-15T04:50:58;97957.75;;;9.87;57.58
62833;BME280;48891;49.220;6.920;2024-01-15T04:53:23;97976.16;;;9.87;57.67
62833;BME280;48891;49.220;6.920;2024-01-15T04:55:49;97974.38;;;9.87;57.68
62833;BME280;48891;49.220;6.920;2024-01-15T04:58:14;97973.44;;;9.88;57.69
62833;BME280;48891;49.220;6.920;2024-01-15T05:00:39;97962.06;;;9.88;57.95
62833;BME280;48891;49.220;6.920;2024-01-15T05:03:04;97948.38;;;9.83;57.60
62833;BME280;48891;49.220;6.920;2024-01-15T05:05:29;97965.53;;;9.88;57.66
62833;BME280;48891;49.220;6.920;2024-01-15T05:07:55;97957.75;;;9.87;57.73
62833;BME280;48891;49.220;6.920;2024-01-15T05:10:20;97957.66;;;9.88;57.68
62833;BME280;48891;49.220;6.920;2024-01-15T05:12:45;97957.75;;;9.87;57.65
62833;BME280;48891;49.220;6.920;2024-01-15T05:15:11;97969.97;;;9.88;57.44
62833;BME280;48891;49.220;6.920;2024-01-15T05:17:36;97963.00;;;9.87;57.64
62833;BME280;48891;49.220;6.920;2024-01-15T05:20:01;97944.88;;;9.82;57.67
62833;BME280;48891;49.220;6.920;2024-01-15T05:22:27;97944.59;;;9.87;57.68
62833;BME280;48891;49.220;6.920;2024-01-15T05:24:52;97948.03;;;9.87;57.74
62833;BME280;48891;49.220;6.920;2024-01-15T05:27:17;97927.72;;;9.77;57.81
62833;BME280;48891;49.220;6.920;2024-01-15T05:29:42;97942.78;;;9.87;57.73
62833;BME280;48891;49.220;6.920;2024-01-15T05:32:07;97934.88;;;9.87;57.69
62833;BME280;48891;49.220;6.920;2024-01-15T05:34:33;97936.59;;;9.88;57.76
62833;BME280;48891;49.220;6.920;2024-01-15T05:36:58;97934.16;;;9.85;57.59
62833;BME280;48891;49.220;6.920;2024-01-15T05:39:23;97930.59;;;9.86;57.75
62833;BME280;48891;49.220;6.920;2024-01-15T05:41:48;97927.94;;;9.86;57.63
62833;BME280;48891;49.220;6.920;2024-01-15T05:44:14;97931.31;;;9.88;57.55
62833;BME280;48891;49.220;6.920;2024-01-15T05:46:39;97923.63;;;9.85;57.77
62833;BME280;48891;49.220;6.920;2024-01-15T05:49:04;97938.47;;;9.86;57.67
62833;BME280;48891;49.220;6.920;2024-01-15T05:51:29;97932.34;;;9.86;57.71
62833;BME280;48891;49.220;6.920;2024-01-15T05:53:55;97938.59;;;9.85;57.69
62833;BME280;48891;49.220;6.920;2024-01-15T05:56:20;97942.03;;;9.85;57.72
62833;BME280;48891;49.220;6.920;2024-01-15T05:58:45;97951.53;;;9.88;57.74
62833;BME280;48891;49.220;6.920;2024-01-15T06:01:10;97940.47;;;9.83;57.68
62833;BME280;48891;49.220;6.920;2024-01-15T06:03:36;97946.38;;;9.86;57.76
62833;BME280;48891;49.220;6.920;2024-01-15T06:06:01;97949.13;;;9.85;57.85
62833;BME280;48891;49.220;6.920;2024-01-15T06:08:26;97920.66;;;9.77;57.48
62833;BME280;48891;49.220;6.920;2024-01-15T06:10:51;97928.88;;;9.85;57.74
62833;BME280;48891;49.220;6.920;2024-01-15T06:13:17;97926.25;;;9.85;57.70
62833;BME280;48891;49.220;6.920;2024-01-15T06:15:42;97918.34;;;9.85;57.69
62833;BME280;48891;49.220;6.920;2024-01-15T06:18:07;97907.00;;;9.85;57.60
62833;BME280;48891;49.220;6.920;2024-01-15T06:20:32;97912.16;;;9.86;57.76
62833;BME280;48891;49.220;6.920;2024-01-15T06:22:58;97907.81;;;9.85;57.80
62833;BME280;48891;49.220;6.920;2024-01-15T06:25:23;97913.94;;;9.86;57.76
62833;BME280;48891;49.220;6.920;2024-01-15T06:27:48;97910.47;;;9.85;57.72
62833;BME280;48891;49.220;6.920;2024-01-15T06:30:14;97902.56;;;9.85;57.58
62833;BME280;48891;49.220;6.920;2024-01-15T06:32:39;97904.47;;;9.83;57.72
62833;BME280;48891;49.220;6.920;2024-01-15T06:35:05;97913.09;;;9.85;57.77
62833;BME280;48891;49.220;6.920;2024-01-15T06:37:31;97910.38;;;9.87;57.91
62833;BME280;48891;49.220;6.920;2024-01-15T06:39:56;97911.44;;;9.84;57.63
62833;BME280;48891;49.220;6.920;2024-01-15T06:42:21;97908.56;;;9.87;57.73
62833;BME280;48891;49.220;6.920;2024-01-15T06:44:46;97905.19;;;9.85;57.76
62833;BME280;48891;49.220;6.920;2024-01-15T06:47:11;97895.72;;;9.83;57.69
62833;BME280;48891;49.220;6.920;2024-01-15T06:49:37;97894.78;;;9.84;57.78
62833;BME280;48891;49.220;6.920;2024-01-15T06:52:02;97899.09;;;9.85;57.83
62833;BME280;48891;49.220;6.920;2024-01-15T06:54:27;97883.41;;;9.83;57.59
62833;BME280;48891;49.220;6.920;2024-01-15T06:56:53;97893.00;;;9.84;57.67
62833;BME280;48891;49.220;6.920;2024-01-15T06:59:18;97883.31;;;9.85;57.77
62833;BME280;48891;49.220;6.920;2024-01-15T07:01:43;97884.13;;;9.85;57.72
62833;BME280;48891;49.220;6.920;2024-01-15T07:04:08;97884.97;;;9.86;57.69
62833;BME280;48891;49.220;6.920;2024-01-15T07:06:33;97884.34;;;9.82;57.84
62833;BME280;48891;49.220;6.920;2024-01-15T07:08:59;97890.38;;;9.84;57.72
62833;BME280;48891;49.220;6.920;2024-01-15T07:11:24;97885.94;;;9.85;57.76
62833;BME280;48891;49.220;6.920;2024-01-15T07:13:49;97884.25;;;9.84;57.69
62833;BME280;48891;49.220;6.920;2024-01-15T07:16:14;97885.94;;;9.85;57.88
62833;BME280;48891;49.220;6.920;2024-01-15T07:18:40;97892.03;;;9.85;57.76
62833;BME280;48891;49.220;6.920;2024-01-15T07:21:05;97893.00;;;9.84;57.80
62833;BME280;48891;49.220;6.920;2024-01-15T07:23:31;97888.56;;;9.85;57.74
62833;BME280;48891;49.220;6.920;2024-01-15T07:25:56;97853.81;;;9.67;57.90
62833;BME280;48891;49.220;6.920;2024-01-15T07:28:22;97883.31;;;9.85;57.80
62833;BME280;48891;49.220;6.920;2024-01-15T07:30:47;97884.25;;;9.84;57.78
62833;BME280;48891;49.220;6.920;2024-01-15T07:33:12;97890.25;;;9.86;57.74
62833;BME280;48891;49.220;6.920;2024-01-15T07:35:37;97879.84;;;9.84;57.79
62833;BME280;48891;49.220;6.920;2024-01-15T07:38:03;97860.47;;;9.73;57.75
62833;BME280;48891;49.220;6.920;2024-01-15T07:40:28;97878.16;;;9.83;57.90
62833;BME280;48891;49.220;6.920;2024-01-15T07:42:53;97884.13;;;9.85;57.80
62833;BME280;48891;49.220;6.920;2024-01-15T07:45:18;97883.31;;;9.85;57.53
62833;BME280;48891;49.220;6.920;2024-01-15T07:47:44;97889.41;;;9.85;57.70
62833;BME280;48891;49.220;6.920;2024-01-15T07:50:09;97897.31;;;9.85;57.77
62833;BME280;48891;49.220;6.920;2024-01-15T07:52:34;97890.38;;;9.84;57.73
62833;BME280;48891;49.220;6.920;2024-01-15T07:55:00;97883.22;;;9.86;57.83
62833;BME280;48891;49.220;6.920;2024-01-15T07:57:25;97887.75;;;9.84;57.73
62833;BME280;48891;49.220;6.920;2024-01-15T07:59:51;97868.66;;;9.81;57.70
62833;BME280;48891;49.220;6.920;2024-01-15T08:02:16;97881.59;;;9.84;57.73
62833;BME280;48891;49.220;6.920;2024-01-15T08:04:41;97886.03;;;9.83;57.96
62833;BME280;48891;49.220;6.920;2024-01-15T08:07:06;97879.94;;;9.83;57.78
62833;BME280;48891;49.220;6.920;2024-01-15T08:09:32;97874.69;;;9.83;57.83
62833;BME280;48891;49.220;6.920;2024-01-15T08:11:57;97876.25;;;9.85;57.78
62833;BME280;48891;49.220;6.920;2024-01-15T08:14:22;97872.88;;;9.83;57.82
62833;BME280;48891;49.220;6.920;2024-01-15T08:16:48;97882.47;;;9.84;57.99
62833;BME280;48891;49.220;6.920;2024-01-15T08:19:13;97871.94;;;9.84;57.88
62833;BME280;48891;49.220;6.920;2024-01-15T08:21:38;97870.16;;;9.85;57.90
62833;BME280;48891;49.220;6.920;2024-01-15T08:24:04;97869.31;;;9.84;57.89
62833;BME280;48891;49.220;6.920;2024-01-15T08:26:29;97873.63;;;9.85;57.92
62833;BME280;48891;49.220;6.920;2024-01-15T08:28:55;97862.16;;;9.86;57.87
62833;BME280;48891;49.220;6.920;2024-01-15T08:31:20;97861.41;;;9.84;57.95
62833;BME280;48891;49.220;6.920;2024-01-15T08:33:45;97855.09;;;9.87;57.78
62833;BME280;48891;49.220;6.920;2024-01-15T08:36:11;97860.34;;;9.87;57.73
62833;BME280;48891;49.220;6.920;2024-01-15T08:38:36;97854.25;;;9.86;57.72
62833;BME280;48891;49.220;6.920;2024-01-15T08:41:01;97864.78;;;9.86;57.88
62833;BME280;48891;49.220;6.920;2024-01-15T08:43:27;97862.97;;;9.87;57.79
62833;BME280;48891;49.220;6.920;2024-01-15T08:45:52;97873.50;;;9.87;57.86
62833;BME280;48891;49.220;6.920;2024-01-15T08:48:17;97851.41;;;9.77;57.89
62833;BME280;48891;49.220;6.920;2024-01-15T08:50:43;97836.13;;;9.69;57.78
62833;BME280;48891;49.220;6.920;2024-01-15T08:53:08;97856.78;;;9.88;58.10
62833;BME280;48891;49.220;6.920;2024-01-15T08:55:33;97861.19;;;9.87;57.90
62833;BME280;48891;49.220;6.920;2024-01-15T08:57:59;97868.16;;;9.88;57.83
62833;BME280;48891;49.220;6.920;2024-01-15T09:00:24;97871.59;;;9.89;57.92
62833;BME280;48891;49.220;6.920;2024-01-15T09:02:49;97867.06;;;9.91;57.82
62833;BME280;48891;49.220;6.920;2024-01-15T09:05:14;97861.91;;;9.89;57.85
62833;BME280;48891;49.220;6.920;2024-01-15T09:07:40;97856.66;;;9.89;57.91
62833;BME280;48891;49.220;6.920;2024-01-15T09:10:05;97860.88;;;9.92;57.81
62833;BME280;48891;49.220;6.920;2024-01-15T09:12:31;97856.53;;;9.91;57.83
62833;BME280;48891;49.220;6.920;2024-01-15T09:14:56;97853.91;;;9.91;57.92
62833;BME280;48891;49.220;6.920;2024-01-15T09:17:21;97857.19;;;9.95;57.96
62833;BME280;48891;49.220;6.920;2024-01-15T09:19:46;97862.34;;;9.96;58.21
62833;BME280;48891;49.220;6.920;2024-01-15T09:22:13;97863.31;;;9.95;58.38
62833;BME280;48891;49.220;6.920;2024-01-15T09:24:40;97867.72;;;9.95;58.40
62833;BME280;48891;49.220;6.920;2024-01-15T09:27:05;97859.28;;;9.89;58.52
62833;BME280;48891;49.220;6.920;2024-01-15T09:29:31;97863.41;;;9.94;58.55
62833;BME280;48891;49.220;6.920;2024-01-15T09:31:56;97857.41;;;9.92;58.84
62833;BME280;48891;49.220;6.920;2024-01-15T09:34:21;97853.72;;;9.94;58.66
62833;BME280;48891;49.220;6.920;2024-01-15T09:36:46;97851.19;;;9.93;58.77
62833;BME280;48891;49.220;6.920;2024-01-15T09:39:12;97866.78;;;9.96;58.98
62833;BME280;48891;49.220;6.920;2024-01-15T09:41:37;97865.06;;;9.95;58.84
62833;BME280;48891;49.220;6.920;2024-01-15T09:44:03;97867.81;;;9.93;58.97
62833;BME280;48891;49.220;6.920;2024-01-15T09:46:31;97864.13;;;9.96;59.03
62833;BME280;48891;49.220;6.920;2024-01-15T09:48:56;97864.13;;;9.96;59.20
62833;BME280;48891;49.220;6.920;2024-01-15T09:51:21;97857.06;;;9.96;59.13
62833;BME280;48891;49.220;6.920;2024-01-15T09:53:47;97853.50;;;9.97;59.24
62833;BME280;48891;49.220;6.920;2024-01-15T09:56:14;97860.44;;;9.98;59.05
62833;BME280;48891;49.220;6.920;2024-01-15T09:58:39;97853.41;;;9.99;59.06
62833;BME280;48891;49.220;6.920;2024-01-15T10:01:06;97858.66;;;9.99;59.04
62833;BME280;48891;49.220;6.920;2024-01-15T10:03:32;97860.22;;;10.01;59.01
62833;BME280;48891;49.220;6.920;2024-01-15T10:05:59;97859.28;;;10.02;58.91
62833;BME280;48891;49.220;6.920;2024-01-15T10:08:25;97860.03;;;10.04;58.80
62833;BME280;48891;49.220;6.920;2024-01-15T10:10:50;97856.44;;;10.05;58.77
62833;BME280;48891;49.220;6.920;2024-01-15T10:13:15;97853.69;;;10.07;58.63
62833;BME280;48891;49.220;6.920;2024-01-15T10:15:41;97858.13;;;10.06;58.66
62833;BME280;48891;49.220;6.920;2024-01-15T10:18:06;97848.13;;;9.99;58.65
62833;BME280;48891;49.220;6.920;2024-01-15T10:20:32;97857.59;;;10.01;58.42
62833;BME280;48891;49.220;6.920;2024-01-15T10:22:57;97857.06;;;10.09;58.59
62833;BME280;48891;49.220;6.920;2024-01-15T10:25:24;97854.41;;;10.09;58.49
62833;BME280;48891;49.220;6.920;2024-01-15T10:28:02;97854.94;;;10.14;58.52
62833;BME280;48891;49.220;6.920;2024-01-15T10:30:28;97845.13;;;10.16;58.33
62833;BME280;48891;49.220;6.920;2024-01-15T10:33:01;97828.53;;;10.03;58.45
62833;BME280;48891;49.220;6.920;2024-01-15T10:35:30;97845.38;;;10.13;58.29
62833;BME280;48891;49.220;6.920;2024-01-15T10:37:55;97838.31;;;10.14;58.45
62833;BME280;48891;49.220;6.920;2024-01-15T10:40:21;97817.38;;;9.99;58.44
62833;BME280;48891;49.220;6.920;2024-01-15T10:42:46;97842.50;;;10.16;58.43
62833;BME280;48891;49.220;6.920;2024-01-15T10:45:11;97838.22;;;10.15;58.38
62833;BME280;48891;49.220;6.920;2024-01-15T10:47:37;97834.75;;;10.15;58.32
62833;BME280;48891;49.220;6.920;2024-01-15T10:50:02;97834.59;;;10.16;58.26
62833;BME280;48891;49.220;6.920;2024-01-15T10:52:28;97835.56;;;10.15;58.24
62833;BME280;48891;49.220;6.920;2024-01-15T10:54:54;97832.09;;;10.15;58.40
62833;BME280;48891;49.220;6.920;2024-01-15T10:57:21;97831.25;;;10.14;58.28
62833;BME280;48891;49.220;6.920;2024-01-15T10:59:46;97822.44;;;10.02;58.51
62833;BME280;48891;49.220;6.920;2024-01-15T11:02:13;97834.75;;;10.15;58.45
62833;BME280;48891;49.220;6.920;2024-01-15T11:04:39;97828.50;;;10.16;58.25
62833;BME280;48891;49.220;6.920;2024-01-15T11:07:05;97840.84;;;10.15;58.33
62833;BME280;48891;49.220;6.920;2024-01-15T11:09:30;97829.69;;;10.12;58.21
62833;BME280;48891;49.220;6.920;2024-01-15T11:12:12;97839.03;;;10.16;58.21
62833;BME280;48891;49.220;6.920;2024-01-15T11:14:42;97824.94;;;10.17;58.20
62833;BME280;48891;49.220;6.920;2024-01-15T11:17:10;97834.41;;;10.19;58.27
62833;BME280;48891;49.220;6.920;2024-01-15T11:19:37;97831.97;;;10.16;58.18
62833;BME280;48891;49.220;6.920;2024-01-15T11:22:02;97839.78;;;10.18;58.17
62833;BME280;48891;49.220;6.920;2024-01-15T11:24:38;97857.28;;;10.19;58.25
62833;BME280;48891;49.220;6.920;2024-01-15T11:27:05;97844.00;;;10.20;58.22
62833;BME280;48891;49.220;6.920;2024-01-15T11:29:35;97844.72;;;10.22;58.24
62833;BME280;48891;49.220;6.920;2024-01-15T11:32:07;97841.25;;;10.22;58.13
62833;BME280;48891;49.220;6.920;2024-01-15T11:35:01;97846.63;;;10.20;58.20
62833;BME280;48891;49.220;6.920;2024-01-15T11:37:27;97837.75;;;10.21;58.19
62833;BME280;48891;49.220;6.920;2024-01-15T11:40:01;97843.91;;;10.22;58.19
62833;BME280;48891;49.220;6.920;2024-01-15T11:42:27;97858.84;;;10.21;58.21
62833;BME280;48891;49.220;6.920;2024-01-15T11:44:52;97849.25;;;10.20;58.28
62833;BME280;48891;49.220;6.920;2024-01-15T11:47:38;97859.69;;;10.22;58.28
62833;BME280;48891;49.220;6.920;2024-01-15T11:50:07;97868.53;;;10.21;58.30
62833;BME280;48891;49.220;6.920;2024-01-15T11:52:35;97838.13;;;10.04;58.13
62833;BME280;48891;49.220;6.920;2024-01-15T11:55:10;97845.13;;;10.16;58.33
62833;BME280;48891;49.220;6.920;2024-01-15T12:00:02;97854.31;;;10.23;58.18
62833;BME280;48891;49.220;6.920;2024-01-15T12:02:28;97856.81;;;10.25;58.17
62833;BME280;48891;49.220;6.920;2024-01-15T12:04:53;97870.75;;;10.27;58.03
62833;BME280;48891;49.220;6.920;2024-01-15T12:07:18;97873.38;;;10.27;58.13
62833;BME280;48891;49.220;6.920;2024-01-15T12:09:43;97858.31;;;10.16;57.99
62833;BME280;48891;49.220;6.920;2024-01-15T12:12:14;97880.31;;;10.28;58.02
62833;BME280;48891;49.220;6.920;2024-01-15T12:14:44;97884.03;;;10.25;58.11
62833;BME280;48891;49.220;6.920;2024-01-15T12:17:10;97881.38;;;10.25;58.18
62833;BME280;48891;49.220;6.920;2024-01-15T12:19:35;97872.63;;;10.25;57.96
62833;BME280;48891;49.220;6.920;2024-01-15T12:22:01;97854.13;;;10.14;57.99
62833;BME280;48891;49.220;6.920;2024-01-15T12:24:26;97876.13;;;10.25;58.15
62833;BME280;48891;49.220;6.920;2024-01-15T12:26:51;97883.06;;;10.26;57.93
62833;BME280;48891;49.220;6.920;2024-01-15T12:29:18;97889.06;;;10.29;58.21
62833;BME280;48891;49.220;6.920;2024-01-15T12:31:47;97870.75;;;10.27;57.72
62833;BME280;48891;49.220;6.920;2024-01-15T12:34:13;97882.56;;;10.34;57.86
62833;BME280;48891;49.220;6.920;2024-01-15T12:36:40;97890.25;;;10.37;57.66
62833;BME280;48891;49.220;6.920;2024-01-15T12:39:05;97886.78;;;10.37;57.78
62833;BME280;48891;49.220;6.920;2024-01-15T12:41:30;97897.50;;;10.34;57.98
62833;BME280;48891;49.220;6.920;2024-01-15T12:43:55;97874.44;;;10.24;57.76
62833;BME280;48891;49.220;6.920;2024-01-15T12:46:21;97897.63;;;10.32;57.97
62833;BME280;48891;49.220;6.920;2024-01-15T12:48:46;97893.31;;;10.31;58.12
62833;BME280;48891;49.220;6.920;2024-01-15T12:51:11;97890.75;;;10.30;57.82
62833;BME280;48891;49.220;6.920;2024-01-15T12:53:37;97882.97;;;10.28;58.00
62833;BME280;48891;49.220;6.920;2024-01-15T12:56:02;97884.56;;;10.31;57.83
62833;BME280;48891;49.220;6.920;2024-01-15T12:58:27;97866.00;;;10.19;57.85
62833;BME280;48891;49.220;6.920;2024-01-15T13:00:53;97882.56;;;10.34;57.83
62833;BME280;48891;49.220;6.920;2024-01-15T13:03:18;97878.88;;;10.37;57.83